sensor_id;sensor_type;location;lat;lon;timestamp;P1;durP1;ratioP1;P2;durP2;ratioP2
20695;SDS011;10507;52.754;13.040;2022-08-03T00:01:39;6.25;;;3.20;;
20695;SDS011;10507;52.754;13.040;2022-08-03T00:04:07;5.18;;;3.40;;
20695;SDS011;10507;52.754;13.040;2022-08-03T00:06:36;4.22;;;3.38;;
20695;SDS011;10507;52.754;13.040;2022-08-03T00:09:04;6.57;;;3.17;;
20695;SDS011;10507;52.754;13.040;2022-08-03T00:11:32;7.78;;;3.28;;
20695;SDS011;10507;52.754;13.040;2022-08-03T00:14:00;7.28;;;3.60;;
20695;SDS011;10507;52.754;13.040;2022-08-03T00:16:29;7.35;;;3.95;;
20695;SDS011;10507;52.754;13.040;2022-08-03T00:18:57;5.25;;;3.60;;
20695;SDS011;10507;52.754;13.040;2022-08-03T00:21:27;5.18;;;3.03;;
20695;SDS011;10507;52.754;13.040;2022-08-03T00:23:55;5.35;;;3.08;;
20695;SDS011;10507;52.754;13.040;2022-08-03T00:26:23;5.32;;;3.10;;
20695;SDS011;10507;52.754;13.040;2022-08-03T00:28:52;6.70;;;3.78;;
20695;SDS011;10507;52.754;13.040;2022-08-03T00:31:20;4.53;;;3.20;;
20695;SDS011;10507;52.754;13.040;2022-08-03T00:34:09;4.25;;;2.97;;
20695;SDS011;10507;52.754;13.040;2022-08-03T00:36:37;3.97;;;2.80;;
20695;SDS011;10507;52.754;13.040;2022-08-03T00:39:05;7.38;;;3.15;;
20695;SDS011;10507;52.754;13.040;2022-08-03T00:41:33;5.75;;;3.15;;
20695;SDS011;10507;52.754;13.040;2022-08-03T00:44:00;5.30;;;3.00;;
20695;SDS011;10507;52.754;13.040;2022-08-03T00:46:28;7.95;;;3.05;;
20695;SDS011;10507;52.754;13.040;2022-08-03T00:48:56;6.88;;;3.15;;
20695;SDS011;10507;52.754;13.040;2022-08-03T00:51:25;8.00;;;3.72;;
20695;SDS011;10507;52.754;13.040;2022-08-03T00:53:54;11.13;;;3.72;;
20695;SDS011;10507;52.754;13.040;2022-08-03T00:56:21;6.32;;;2.92;;
20695;SDS011;10507;52.754;13.040;2022-08-03T00:58:49;8.80;;;3.55;;
20695;SDS011;10507;52.754;13.040;2022-08-03T01:01:18;7.07;;;3.85;;
20695;SDS011;10507;52.754;13.040;2022-08-03T01:03:45;7.95;;;3.28;;
20695;SDS011;10507;52.754;13.040;2022-08-03T01:06:15;8.00;;;3.70;;
20695;SDS011;10507;52.754;13.040;2022-08-03T01:08:47;5.78;;;3.30;;
20695;SDS011;10507;52.754;13.040;2022-08-03T01:11:23;5.65;;;3.10;;
20695;SDS011;10507;52.754;13.040;2022-08-03T01:14:01;5.75;;;3.15;;
20695;SDS011;10507;52.754;13.040;2022-08-03T01:16:47;7.68;;;3.80;;
20695;SDS011;10507;52.754;13.040;2022-08-03T01:19:33;6.03;;;3.60;;
20695;SDS011;10507;52.754;13.040;2022-08-03T01:22:12;7.82;;;4.05;;
20695;SDS011;10507;52.754;13.040;2022-08-03T01:24:55;6.38;;;3.10;;
20695;SDS011;10507;52.754;13.040;2022-08-03T01:27:30;5.63;;;3.50;;
20695;SDS011;10507;52.754;13.040;2022-08-03T01:30:10;11.45;;;3.88;;
20695;SDS011;10507;52.754;13.040;2022-08-03T01:32:40;9.13;;;3.72;;
20695;SDS011;10507;52.754;13.040;2022-08-03T01:35:27;6.90;;;3.67;;
20695;SDS011;10507;52.754;13.040;2022-08-03T01:38:04;9.38;;;4.15;;
20695;SDS011;10507;52.754;13.040;2022-08-03T01:40:40;8.13;;;3.67;;
20695;SDS011;10507;52.754;13.040;2022-08-03T01:43:12;6.10;;;3.70;;
20695;SDS011;10507;52.754;13.040;2022-08-03T01:46:03;8.10;;;4.15;;
20695;SDS011;10507;52.754;13.040;2022-08-03T01:48:34;7.38;;;3.90;;
20695;SDS011;10507;52.754;13.040;2022-08-03T01:51:04;7.90;;;3.85;;
20695;SDS011;10507;52.754;13.040;2022-08-03T01:53:32;6.35;;;3.85;;
20695;SDS011;10507;52.754;13.040;2022-08-03T01:56:03;6.18;;;3.30;;
20695;SDS011;10507;52.754;13.040;2022-08-03T01:58:33;6.72;;;3.95;;
20695;SDS011;10507;52.754;13.040;2022-08-03T02:01:04;7.07;;;3.78;;
20695;SDS011;10507;52.754;13.040;2022-08-03T02:03:33;9.80;;;4.78;;
20695;SDS011;10507;52.754;13.040;2022-08-03T02:06:23;8.00;;;3.90;;
20695;SDS011;10507;52.754;13.040;2022-08-03T02:09:12;9.15;;;3.90;;
20695;SDS011;10507;52.754;13.040;2022-08-03T02:11:41;7.82;;;4.47;;
20695;SDS011;10507;52.754;13.040;2022-08-03T02:14:10;13.32;;;5.03;;
20695;SDS011;10507;52.754;13.040;2022-08-03T02:16:40;7.15;;;4.35;;
20695;SDS011;10507;52.754;13.040;2022-08-03T02:19:10;11.38;;;6.00;;
20695;SDS011;10507;52.754;13.040;2022-08-03T02:22:04;12.98;;;5.28;;
20695;SDS011;10507;52.754;13.040;2022-08-03T02:24:36;8.48;;;4.30;;
20695;SDS011;10507;52.754;13.040;2022-08-03T02:27:19;8.45;;;4.90;;
20695;SDS011;10507;52.754;13.040;2022-08-03T02:29:52;11.02;;;5.40;;
20695;SDS011;10507;52.754;13.040;2022-08-03T02:32:27;10.32;;;4.97;;
20695;SDS011;10507;52.754;13.040;2022-08-03T02:34:58;9.57;;;4.55;;
20695;SDS011;10507;52.754;13.040;2022-08-03T02:37:27;9.93;;;4.80;;
20695;SDS011;10507;52.754;13.040;2022-08-03T02:39:58;8.98;;;4.60;;
20695;SDS011;10507;52.754;13.040;2022-08-03T02:42:29;8.07;;;4.50;;
20695;SDS011;10507;52.754;13.040;2022-08-03T02:45:00;8.65;;;4.80;;
20695;SDS011;10507;52.754;13.040;2022-08-03T02:47:33;9.80;;;4.43;;
20695;SDS011;10507;52.754;13.040;2022-08-03T02:50:20;8.88;;;4.40;;
20695;SDS011;10507;52.754;13.040;2022-08-03T02:52:50;10.57;;;5.20;;
20695;SDS011;10507;52.754;13.040;2022-08-03T02:55:19;11.80;;;5.13;;
20695;SDS011;10507;52.754;13.040;2022-08-03T02:57:48;7.80;;;4.82;;
20695;SDS011;10507;52.754;13.040;2022-08-03T03:00:17;11.20;;;4.85;;
20695;SDS011;10507;52.754;13.040;2022-08-03T03:02:55;10.88;;;4.57;;
20695;SDS011;10507;52.754;13.040;2022-08-03T03:05:24;10.10;;;5.05;;
20695;SDS011;10507;52.754;13.040;2022-08-03T03:08:11;8.15;;;4.78;;
20695;SDS011;10507;52.754;13.040;2022-08-03T03:10:45;7.50;;;4.25;;
20695;SDS011;10507;52.754;13.040;2022-08-03T03:13:20;8.25;;;4.82;;
20695;SDS011;10507;52.754;13.040;2022-08-03T03:15:49;8.88;;;4.80;;
20695;SDS011;10507;52.754;13.040;2022-08-03T03:18:20;9.45;;;4.80;;
20695;SDS011;10507;52.754;13.040;2022-08-03T03:20:48;7.63;;;4.40;;
20695;SDS011;10507;52.754;13.040;2022-08-03T03:23:17;6.93;;;4.00;;
20695;SDS011;10507;52.754;13.040;2022-08-03T03:25:47;9.80;;;4.60;;
20695;SDS011;10507;52.754;13.040;2022-08-03T03:28:15;6.00;;;4.32;;
20695;SDS011;10507;52.754;13.040;2022-08-03T03:30:43;7.45;;;5.03;;
20695;SDS011;10507;52.754;13.040;2022-08-03T03:33:20;6.72;;;4.20;;
20695;SDS011;10507;52.754;13.040;2022-08-03T03:35:48;7.75;;;4.60;;
20695;SDS011;10507;52.754;13.040;2022-08-03T03:38:18;8.15;;;4.38;;
20695;SDS011;10507;52.754;13.040;2022-08-03T03:40:46;7.80;;;3.72;;
20695;SDS011;10507;52.754;13.040;2022-08-03T03:43:14;10.10;;;4.68;;
20695;SDS011;10507;52.754;13.040;2022-08-03T03:45:44;6.57;;;5.00;;
20695;SDS011;10507;52.754;13.040;2022-08-03T03:48:12;10.50;;;5.80;;
20695;SDS011;10507;52.754;13.040;2022-08-03T03:50:42;7.90;;;5.20;;
20695;SDS011;10507;52.754;13.040;2022-08-03T03:53:10;9.52;;;4.80;;
20695;SDS011;10507;52.754;13.040;2022-08-03T03:55:41;7.85;;;4.63;;
20695;SDS011;10507;52.754;13.040;2022-08-03T03:58:28;8.45;;;4.43;;
20695;SDS011;10507;52.754;13.040;2022-08-03T04:00:57;10.02;;;4.90;;
20695;SDS011;10507;52.754;13.040;2022-08-03T04:03:25;6.28;;;4.45;;
20695;SDS011;10507;52.754;13.040;2022-08-03T04:05:54;7.70;;;4.90;;
20695;SDS011;10507;52.754;13.040;2022-08-03T04:08:39;13.70;;;5.00;;
20695;SDS011;10507;52.754;13.040;2022-08-03T04:11:26;8.23;;;5.07;;
20695;SDS011;10507;52.754;13.040;2022-08-03T04:13:57;8.40;;;5.38;;
20695;SDS011;10507;52.754;13.040;2022-08-03T04:16:30;6.53;;;4.43;;
20695;SDS011;10507;52.754;13.040;2022-08-03T04:19:07;9.38;;;4.85;;
20695;SDS011;10507;52.754;13.040;2022-08-03T04:21:39;5.95;;;4.68;;
20695;SDS011;10507;52.754;13.040;2022-08-03T04:24:09;7.97;;;5.05;;
20695;SDS011;10507;52.754;13.040;2022-08-03T04:26:40;9.25;;;5.22;;
20695;SDS011;10507;52.754;13.040;2022-08-03T04:29:09;9.27;;;4.75;;
20695;SDS011;10507;52.754;13.040;2022-08-03T04:31:38;10.65;;;4.88;;
20695;SDS011;10507;52.754;13.040;2022-08-03T04:34:08;6.38;;;4.72;;
20695;SDS011;10507;52.754;13.040;2022-08-03T04:36:39;7.85;;;4.97;;
20695;SDS011;10507;52.754;13.040;2022-08-03T04:39:15;6.40;;;4.13;;
20695;SDS011;10507;52.754;13.040;2022-08-03T04:41:47;7.15;;;4.75;;
20695;SDS011;10507;52.754;13.040;2022-08-03T04:44:34;8.25;;;4.68;;
20695;SDS011;10507;52.754;13.040;2022-08-03T04:47:05;7.93;;;4.40;;
20695;SDS011;10507;52.754;13.040;2022-08-03T04:49:33;11.05;;;5.03;;
20695;SDS011;10507;52.754;13.040;2022-08-03T04:52:04;7.07;;;4.13;;
20695;SDS011;10507;52.754;13.040;2022-08-03T04:54:38;5.70;;;4.00;;
20695;SDS011;10507;52.754;13.040;2022-08-03T04:57:07;6.68;;;4.63;;
20695;SDS011;10507;52.754;13.040;2022-08-03T04:59:34;8.98;;;3.92;;
20695;SDS011;10507;52.754;13.040;2022-08-03T05:02:06;6.18;;;3.53;;
20695;SDS011;10507;52.754;13.040;2022-08-03T05:04:34;7.35;;;4.18;;
20695;SDS011;10507;52.754;13.040;2022-08-03T05:07:04;6.82;;;3.88;;
20695;SDS011;10507;52.754;13.040;2022-08-03T05:09:37;6.28;;;3.58;;
20695;SDS011;10507;52.754;13.040;2022-08-03T05:12:18;7.20;;;3.30;;
20695;SDS011;10507;52.754;13.040;2022-08-03T05:14:45;5.63;;;3.17;;
20695;SDS011;10507;52.754;13.040;2022-08-03T05:17:13;5.20;;;2.70;;
20695;SDS011;10507;52.754;13.040;2022-08-03T05:19:41;6.43;;;2.70;;
20695;SDS011;10507;52.754;13.040;2022-08-03T05:22:10;4.75;;;2.95;;
20695;SDS011;10507;52.754;13.040;2022-08-03T05:24:38;6.60;;;2.55;;
20695;SDS011;10507;52.754;13.040;2022-08-03T05:27:06;4.97;;;2.50;;
20695;SDS011;10507;52.754;13.040;2022-08-03T05:29:34;4.60;;;2.45;;
20695;SDS011;10507;52.754;13.040;2022-08-03T05:32:04;5.18;;;2.67;;
20695;SDS011;10507;52.754;13.040;2022-08-03T05:34:33;6.93;;;2.60;;
20695;SDS011;10507;52.754;13.040;2022-08-03T05:37:01;6.65;;;2.20;;
20695;SDS011;10507;52.754;13.040;2022-08-03T05:39:30;5.88;;;2.00;;
20695;SDS011;10507;52.754;13.040;2022-08-03T05:41:58;4.13;;;2.17;;
20695;SDS011;10507;52.754;13.040;2022-08-03T05:44:26;3.00;;;1.77;;
20695;SDS011;10507;52.754;13.040;2022-08-03T05:46:55;4.20;;;1.65;;
20695;SDS011;10507;52.754;13.040;2022-08-03T05:49:23;2.67;;;1.83;;
20695;SDS011;10507;52.754;13.040;2022-08-03T05:51:51;5.22;;;2.40;;
20695;SDS011;10507;52.754;13.040;2022-08-03T05:54:37;6.70;;;2.20;;
20695;SDS011;10507;52.754;13.040;2022-08-03T05:57:22;7.50;;;2.08;;
20695;SDS011;10507;52.754;13.040;2022-08-03T05:59:50;7.80;;;2.13;;
20695;SDS011;10507;52.754;13.040;2022-08-03T06:02:24;5.13;;;2.10;;
20695;SDS011;10507;52.754;13.040;2022-08-03T06:04:52;4.43;;;1.73;;
20695;SDS011;10507;52.754;13.040;2022-08-03T06:07:20;3.20;;;1.50;;
20695;SDS011;10507;52.754;13.040;2022-08-03T06:09:50;3.72;;;1.30;;
20695;SDS011;10507;52.754;13.040;2022-08-03T06:12:38;4.47;;;2.08;;
20695;SDS011;10507;52.754;13.040;2022-08-03T06:15:07;4.15;;;1.67;;
20695;SDS011;10507;52.754;13.040;2022-08-03T06:17:43;2.70;;;1.08;;
20695;SDS011;10507;52.754;13.040;2022-08-03T06:20:11;3.85;;;1.50;;
20695;SDS011;10507;52.754;13.040;2022-08-03T06:22:39;2.75;;;1.33;;
20695;SDS011;10507;52.754;13.040;2022-08-03T06:25:17;3.03;;;1.63;;
20695;SDS011;10507;52.754;13.040;2022-08-03T06:27:46;4.53;;;1.63;;
20695;SDS011;10507;52.754;13.040;2022-08-03T06:30:14;3.72;;;1.23;;
20695;SDS011;10507;52.754;13.040;2022-08-03T06:32:46;3.55;;;1.40;;
20695;SDS011;10507;52.754;13.040;2022-08-03T06:35:17;3.67;;;1.30;;
20695;SDS011;10507;52.754;13.040;2022-08-03T06:37:46;4.53;;;1.30;;
20695;SDS011;10507;52.754;13.040;2022-08-03T06:40:15;3.03;;;1.40;;
20695;SDS011;10507;52.754;13.040;2022-08-03T06:42:49;3.13;;;1.30;;
20695;SDS011;10507;52.754;13.040;2022-08-03T06:45:17;2.63;;;1.25;;
20695;SDS011;10507;52.754;13.040;2022-08-03T06:47:45;2.65;;;1.15;;
20695;SDS011;10507;52.754;13.040;2022-08-03T06:50:13;3.55;;;1.27;;
20695;SDS011;10507;52.754;13.040;2022-08-03T06:52:44;3.28;;;1.48;;
20695;SDS011;10507;52.754;13.040;2022-08-03T06:55:12;2.55;;;1.13;;
20695;SDS011;10507;52.754;13.040;2022-08-03T06:57:43;2.50;;;1.50;;
20695;SDS011;10507;52.754;13.040;2022-08-03T07:00:12;3.63;;;1.27;;
20695;SDS011;10507;52.754;13.040;2022-08-03T07:02:40;2.85;;;1.55;;
20695;SDS011;10507;52.754;13.040;2022-08-03T07:05:08;2.60;;;1.08;;
20695;SDS011;10507;52.754;13.040;2022-08-03T07:07:36;1.73;;;1.02;;
20695;SDS011;10507;52.754;13.040;2022-08-03T07:10:04;3.25;;;1.50;;
20695;SDS011;10507;52.754;13.040;2022-08-03T07:12:34;3.08;;;1.35;;
20695;SDS011;10507;52.754;13.040;2022-08-03T07:15:19;2.35;;;1.30;;
20695;SDS011;10507;52.754;13.040;2022-08-03T07:18:07;3.22;;;1.13;;
20695;SDS011;10507;52.754;13.040;2022-08-03T07:20:34;3.10;;;1.60;;
20695;SDS011;10507;52.754;13.040;2022-08-03T07:23:02;5.65;;;1.45;;
20695;SDS011;10507;52.754;13.040;2022-08-03T07:25:30;2.83;;;1.00;;
20695;SDS011;10507;52.754;13.040;2022-08-03T07:27:58;4.28;;;1.50;;
20695;SDS011;10507;52.754;13.040;2022-08-03T07:30:37;5.40;;;1.38;;
20695;SDS011;10507;52.754;13.040;2022-08-03T07:33:07;2.92;;;1.23;;
20695;SDS011;10507;52.754;13.040;2022-08-03T07:35:35;3.03;;;1.50;;
20695;SDS011;10507;52.754;13.040;2022-08-03T07:38:03;1.55;;;0.80;;
20695;SDS011;10507;52.754;13.040;2022-08-03T07:40:31;2.40;;;1.15;;
20695;SDS011;10507;52.754;13.040;2022-08-03T07:42:58;3.10;;;0.90;;
20695;SDS011;10507;52.754;13.040;2022-08-03T07:45:28;3.85;;;1.27;;
20695;SDS011;10507;52.754;13.040;2022-08-03T07:47:57;3.95;;;1.30;;
20695;SDS011;10507;52.754;13.040;2022-08-03T07:50:25;3.53;;;1.10;;
20695;SDS011;10507;52.754;13.040;2022-08-03T07:52:53;2.75;;;1.00;;
20695;SDS011;10507;52.754;13.040;2022-08-03T07:55:24;3.78;;;1.20;;
20695;SDS011;10507;52.754;13.040;2022-08-03T07:58:02;2.38;;;1.17;;
20695;SDS011;10507;52.754;13.040;2022-08-03T08:00:32;3.72;;;1.10;;
20695;SDS011;10507;52.754;13.040;2022-08-03T08:03:02;1.83;;;0.90;;
20695;SDS011;10507;52.754;13.040;2022-08-03T08:05:30;1.85;;;1.23;;
20695;SDS011;10507;52.754;13.040;2022-08-03T08:07:58;4.90;;;1.55;;
20695;SDS011;10507;52.754;13.040;2022-08-03T08:10:26;3.13;;;0.95;;
20695;SDS011;10507;52.754;13.040;2022-08-03T08:12:56;3.30;;;1.42;;
20695;SDS011;10507;52.754;13.040;2022-08-03T08:15:29;1.88;;;1.10;;
20695;SDS011;10507;52.754;13.040;2022-08-03T08:17:58;2.03;;;0.90;;
20695;SDS011;10507;52.754;13.040;2022-08-03T08:20:34;1.88;;;1.17;;
20695;SDS011;10507;52.754;13.040;2022-08-03T08:23:27;2.53;;;1.17;;
20695;SDS011;10507;52.754;13.040;2022-08-03T08:26:08;3.90;;;1.23;;
20695;SDS011;10507;52.754;13.040;2022-08-03T08:28:36;3.90;;;1.23;;
20695;SDS011;10507;52.754;13.040;2022-08-03T08:31:04;1.33;;;1.00;;
20695;SDS011;10507;52.754;13.040;2022-08-03T08:33:35;2.83;;;1.08;;
20695;SDS011;10507;52.754;13.040;2022-08-03T08:36:24;3.38;;;1.20;;
20695;SDS011;10507;52.754;13.040;2022-08-03T08:38:52;3.75;;;0.93;;
20695;SDS011;10507;52.754;13.040;2022-08-03T08:44:21;5.70;;;1.38;;
20695;SDS011;10507;52.754;13.040;2022-08-03T08:46:51;3.63;;;1.25;;
20695;SDS011;10507;52.754;13.040;2022-08-03T08:49:20;2.53;;;1.30;;
20695;SDS011;10507;52.754;13.040;2022-08-03T08:51:56;3.47;;;1.45;;
20695;SDS011;10507;52.754;13.040;2022-08-03T08:54:26;3.38;;;1.30;;
20695;SDS011;10507;52.754;13.040;2022-08-03T08:56:57;2.17;;;1.13;;
20695;SDS011;10507;52.754;13.040;2022-08-03T08:59:41;5.80;;;1.67;;
20695;SDS011;10507;52.754;13.040;2022-08-03T09:02:14;3.40;;;1.60;;
20695;SDS011;10507;52.754;13.040;2022-08-03T09:04:42;1.98;;;1.13;;
20695;SDS011;10507;52.754;13.040;2022-08-03T09:07:15;3.78;;;1.70;;
20695;SDS011;10507;52.754;13.040;2022-08-03T09:09:45;1.65;;;1.33;;
20695;SDS011;10507;52.754;13.040;2022-08-03T09:12:36;4.03;;;1.63;;
20695;SDS011;10507;52.754;13.040;2022-08-03T09:15:17;2.95;;;1.35;;
20695;SDS011;10507;52.754;13.040;2022-08-03T09:17:47;2.97;;;1.35;;
20695;SDS011;10507;52.754;13.040;2022-08-03T09:20:17;3.85;;;1.50;;
20695;SDS011;10507;52.754;13.040;2022-08-03T09:22:54;2.67;;;1.30;;
20695;SDS011;10507;52.754;13.040;2022-08-03T09:25:56;2.38;;;1.50;;
20695;SDS011;10507;52.754;13.040;2022-08-03T09:28:33;2.92;;;1.33;;
20695;SDS011;10507;52.754;13.040;2022-08-03T09:31:28;1.60;;;1.40;;
20695;SDS011;10507;52.754;13.040;2022-08-03T09:34:01;5.38;;;1.40;;
20695;SDS011;10507;52.754;13.040;2022-08-03T09:36:33;2.92;;;1.48;;
20695;SDS011;10507;52.754;13.040;2022-08-03T09:39:11;2.35;;;1.23;;
20695;SDS011;10507;52.754;13.040;2022-08-03T09:42:05;2.45;;;1.35;;
20695;SDS011;10507;52.754;13.040;2022-08-03T09:44:44;4.65;;;1.23;;
20695;SDS011;10507;52.754;13.040;2022-08-03T09:47:15;5.88;;;1.60;;
20695;SDS011;10507;52.754;13.040;2022-08-03T09:49:59;5.43;;;1.48;;
20695;SDS011;10507;52.754;13.040;2022-08-03T09:52:34;2.28;;;1.70;;
20695;SDS011;10507;52.754;13.040;2022-08-03T09:55:25;3.65;;;1.92;;
20695;SDS011;10507;52.754;13.040;2022-08-03T09:58:19;4.65;;;1.20;;
20695;SDS011;10507;52.754;13.040;2022-08-03T10:00:51;4.38;;;1.42;;
20695;SDS011;10507;52.754;13.040;2022-08-03T10:03:21;7.05;;;1.60;;
20695;SDS011;10507;52.754;13.040;2022-08-03T10:05:55;2.25;;;1.27;;
20695;SDS011;10507;52.754;13.040;2022-08-03T10:08:28;3.05;;;1.27;;
20695;SDS011;10507;52.754;13.040;2022-08-03T10:10:59;3.28;;;1.67;;
20695;SDS011;10507;52.754;13.040;2022-08-03T10:13:30;1.83;;;1.45;;
20695;SDS011;10507;52.754;13.040;2022-08-03T10:15:58;2.55;;;1.55;;
20695;SDS011;10507;52.754;13.040;2022-08-03T10:18:46;3.42;;;1.42;;
20695;SDS011;10507;52.754;13.040;2022-08-03T10:21:15;3.70;;;1.60;;
20695;SDS011;10507;52.754;13.040;2022-08-03T10:23:46;2.63;;;1.25;;
20695;SDS011;10507;52.754;13.040;2022-08-03T10:26:16;3.63;;;1.30;;
20695;SDS011;10507;52.754;13.040;2022-08-03T10:28:47;4.05;;;1.48;;
20695;SDS011;10507;52.754;13.040;2022-08-03T10:31:19;1.58;;;1.30;;
20695;SDS011;10507;52.754;13.040;2022-08-03T10:33:51;3.80;;;1.30;;
20695;SDS011;10507;52.754;13.040;2022-08-03T10:36:23;1.65;;;1.27;;
20695;SDS011;10507;52.754;13.040;2022-08-03T10:38:57;4.93;;;1.35;;
20695;SDS011;10507;52.754;13.040;2022-08-03T10:41:30;3.15;;;1.35;;
20695;SDS011;10507;52.754;13.040;2022-08-03T10:44:02;3.22;;;1.20;;
20695;SDS011;10507;52.754;13.040;2022-08-03T10:46:32;1.95;;;1.23;;
20695;SDS011;10507;52.754;13.040;2022-08-03T10:49:06;4.97;;;1.40;;
20695;SDS011;10507;52.754;13.040;2022-08-03T10:51:35;1.95;;;1.40;;
20695;SDS011;10507;52.754;13.040;2022-08-03T10:54:03;3.15;;;1.20;;
20695;SDS011;10507;52.754;13.040;2022-08-03T10:56:38;4.35;;;1.02;;
20695;SDS011;10507;52.754;13.040;2022-08-03T10:59:57;2.00;;;1.20;;
20695;SDS011;10507;52.754;13.040;2022-08-03T11:05:32;4.20;;;1.15;;
20695;SDS011;10507;52.754;13.040;2022-08-03T11:10:51;2.67;;;1.40;;
20695;SDS011;10507;52.754;13.040;2022-08-03T11:13:22;2.30;;;1.13;;
20695;SDS011;10507;52.754;13.040;2022-08-03T11:15:54;3.03;;;1.42;;
20695;SDS011;10507;52.754;13.040;2022-08-03T11:18:27;4.13;;;1.60;;
20695;SDS011;10507;52.754;13.040;2022-08-03T11:20:56;3.80;;;1.13;;
20695;SDS011;10507;52.754;13.040;2022-08-03T11:23:43;5.88;;;1.48;;
20695;SDS011;10507;52.754;13.040;2022-08-03T11:26:28;4.63;;;1.30;;
20695;SDS011;10507;52.754;13.040;2022-08-03T11:29:25;2.40;;;1.17;;
20695;SDS011;10507;52.754;13.040;2022-08-03T11:31:56;2.15;;;1.33;;
20695;SDS011;10507;52.754;13.040;2022-08-03T11:34:24;1.88;;;1.23;;
20695;SDS011;10507;52.754;13.040;2022-08-03T11:39:58;1.77;;;1.30;;
20695;SDS011;10507;52.754;13.040;2022-08-03T11:42:37;2.47;;;1.17;;
20695;SDS011;10507;52.754;13.040;2022-08-03T11:45:08;2.25;;;1.10;;
20695;SDS011;10507;52.754;13.040;2022-08-03T11:47:37;3.85;;;1.00;;
20695;SDS011;10507;52.754;13.040;2022-08-03T11:50:16;2.70;;;1.00;;
20695;SDS011;10507;52.754;13.040;2022-08-03T11:52:45;1.83;;;1.00;;
20695;SDS011;10507;52.754;13.040;2022-08-03T11:55:14;3.92;;;1.15;;
20695;SDS011;10507;52.754;13.040;2022-08-03T11:57:44;1.40;;;0.95;;
20695;SDS011;10507;52.754;13.040;2022-08-03T12:00:33;2.67;;;1.08;;
20695;SDS011;10507;52.754;13.040;2022-08-03T12:03:02;2.03;;;1.20;;
20695;SDS011;10507;52.754;13.040;2022-08-03T12:05:33;1.50;;;1.15;;
20695;SDS011;10507;52.754;13.040;2022-08-03T12:08:02;3.15;;;1.35;;
20695;SDS011;10507;52.754;13.040;2022-08-03T12:10:32;4.25;;;1.33;;
20695;SDS011;10507;52.754;13.040;2022-08-03T12:13:01;2.83;;;1.42;;
20695;SDS011;10507;52.754;13.040;2022-08-03T12:15:53;1.83;;;1.27;;
20695;SDS011;10507;52.754;13.040;2022-08-03T12:18:22;4.18;;;1.60;;
20695;SDS011;10507;52.754;13.040;2022-08-03T12:20:51;4.30;;;1.40;;
20695;SDS011;10507;52.754;13.040;2022-08-03T12:23:19;3.05;;;1.30;;
20695;SDS011;10507;52.754;13.040;2022-08-03T12:25:47;6.22;;;1.73;;
20695;SDS011;10507;52.754;13.040;2022-08-03T12:28:16;3.33;;;1.35;;
20695;SDS011;10507;52.754;13.040;2022-08-03T12:31:05;1.20;;;1.10;;
20695;SDS011;10507;52.754;13.040;2022-08-03T12:36:21;2.97;;;1.30;;
20695;SDS011;10507;52.754;13.040;2022-08-03T12:38:53;3.75;;;1.40;;
20695;SDS011;10507;52.754;13.040;2022-08-03T12:41:26;1.85;;;1.20;;
20695;SDS011;10507;52.754;13.040;2022-08-03T12:43:56;1.60;;;1.40;;
20695;SDS011;10507;52.754;13.040;2022-08-03T12:46:30;3.70;;;1.50;;
20695;SDS011;10507;52.754;13.040;2022-08-03T12:49:00;3.05;;;1.40;;
20695;SDS011;10507;52.754;13.040;2022-08-03T12:51:31;2.47;;;1.20;;
20695;SDS011;10507;52.754;13.040;2022-08-03T12:53:59;2.38;;;1.20;;
20695;SDS011;10507;52.754;13.040;2022-08-03T12:56:28;4.10;;;1.42;;
20695;SDS011;10507;52.754;13.040;2022-08-03T12:58:56;1.55;;;1.08;;
20695;SDS011;10507;52.754;13.040;2022-08-03T13:01:23;2.70;;;1.50;;
20695;SDS011;10507;52.754;13.040;2022-08-03T13:03:54;2.67;;;1.17;;
20695;SDS011;10507;52.754;13.040;2022-08-03T13:06:22;1.85;;;1.20;;
20695;SDS011;10507;52.754;13.040;2022-08-03T13:09:01;2.85;;;1.20;;
20695;SDS011;10507;52.754;13.040;2022-08-03T13:11:31;3.63;;;1.17;;
20695;SDS011;10507;52.754;13.040;2022-08-03T13:14:20;2.47;;;1.60;;
20695;SDS011;10507;52.754;13.040;2022-08-03T13:16:49;2.22;;;1.10;;
20695;SDS011;10507;52.754;13.040;2022-08-03T13:19:18;1.85;;;1.25;;
20695;SDS011;10507;52.754;13.040;2022-08-03T13:21:46;1.65;;;0.93;;
20695;SDS011;10507;52.754;13.040;2022-08-03T13:24:29;1.63;;;1.15;;
20695;SDS011;10507;52.754;13.040;2022-08-03T13:26:58;2.85;;;1.70;;
20695;SDS011;10507;52.754;13.040;2022-08-03T13:29:47;1.30;;;1.00;;
20695;SDS011;10507;52.754;13.040;2022-08-03T13:32:15;1.92;;;1.20;;
20695;SDS011;10507;52.754;13.040;2022-08-03T13:34:44;3.22;;;1.50;;
20695;SDS011;10507;52.754;13.040;2022-08-03T13:37:12;2.13;;;1.33;;
20695;SDS011;10507;52.754;13.040;2022-08-03T13:39:40;3.28;;;1.20;;
20695;SDS011;10507;52.754;13.040;2022-08-03T13:42:25;2.08;;;1.00;;
20695;SDS011;10507;52.754;13.040;2022-08-03T13:44:53;1.80;;;1.00;;
20695;SDS011;10507;52.754;13.040;2022-08-03T13:47:21;1.52;;;1.10;;
20695;SDS011;10507;52.754;13.040;2022-08-03T13:49:50;1.92;;;0.90;;
20695;SDS011;10507;52.754;13.040;2022-08-03T13:52:27;1.60;;;1.00;;
20695;SDS011;10507;52.754;13.040;2022-08-03T13:54:55;2.80;;;1.30;;
20695;SDS011;10507;52.754;13.040;2022-08-03T13:57:22;3.95;;;1.10;;
20695;SDS011;10507;52.754;13.040;2022-08-03T14:00:11;2.90;;;1.17;;
20695;SDS011;10507;52.754;13.040;2022-08-03T14:02:53;3.80;;;1.02;;
20695;SDS011;10507;52.754;13.040;2022-08-03T14:05:42;2.75;;;1.20;;
20695;SDS011;10507;52.754;13.040;2022-08-03T14:08:11;3.90;;;1.15;;
20695;SDS011;10507;52.754;13.040;2022-08-03T14:10:39;3.13;;;1.30;;
20695;SDS011;10507;52.754;13.040;2022-08-03T14:13:09;3.47;;;1.15;;
20695;SDS011;10507;52.754;13.040;2022-08-03T14:15:42;2.53;;;0.90;;
20695;SDS011;10507;52.754;13.040;2022-08-03T14:18:16;1.90;;;1.02;;
20695;SDS011;10507;52.754;13.040;2022-08-03T14:20:56;1.60;;;1.00;;
20695;SDS011;10507;52.754;13.040;2022-08-03T14:23:30;2.10;;;1.35;;
20695;SDS011;10507;52.754;13.040;2022-08-03T14:25:58;2.22;;;1.20;;
20695;SDS011;10507;52.754;13.040;2022-08-03T14:28:28;2.95;;;1.23;;
20695;SDS011;10507;52.754;13.040;2022-08-03T14:30:59;1.77;;;1.20;;
20695;SDS011;10507;52.754;13.040;2022-08-03T14:33:51;3.05;;;1.27;;
20695;SDS011;10507;52.754;13.040;2022-08-03T14:36:25;3.10;;;1.17;;
20695;SDS011;10507;52.754;13.040;2022-08-03T14:38:54;1.17;;;1.08;;
20695;SDS011;10507;52.754;13.040;2022-08-03T14:41:26;2.50;;;1.27;;
20695;SDS011;10507;52.754;13.040;2022-08-03T14:43:54;2.00;;;1.23;;
20695;SDS011;10507;52.754;13.040;2022-08-03T14:46:27;3.40;;;1.30;;
20695;SDS011;10507;52.754;13.040;2022-08-03T14:48:55;1.50;;;1.10;;
20695;SDS011;10507;52.754;13.040;2022-08-03T14:51:45;2.50;;;1.50;;
20695;SDS011;10507;52.754;13.040;2022-08-03T14:54:19;1.73;;;1.23;;
20695;SDS011;10507;52.754;13.040;2022-08-03T14:56:47;1.60;;;1.02;;
20695;SDS011;10507;52.754;13.040;2022-08-03T14:59:15;3.78;;;1.13;;
20695;SDS011;10507;52.754;13.040;2022-08-03T15:01:42;2.83;;;1.20;;
20695;SDS011;10507;52.754;13.040;2022-08-03T15:04:30;1.98;;;1.48;;
20695;SDS011;10507;52.754;13.040;2022-08-03T15:07:01;2.03;;;1.20;;
20695;SDS011;10507;52.754;13.040;2022-08-03T15:09:34;1.60;;;1.17;;
20695;SDS011;10507;52.754;13.040;2022-08-03T15:12:04;2.85;;;1.10;;
20695;SDS011;10507;52.754;13.040;2022-08-03T15:14:32;0.95;;;0.90;;
20695;SDS011;10507;52.754;13.040;2022-08-03T15:17:03;2.78;;;1.25;;
20695;SDS011;10507;52.754;13.040;2022-08-03T15:19:33;2.08;;;1.00;;
20695;SDS011;10507;52.754;13.040;2022-08-03T15:22:23;3.05;;;1.58;;